sensor_id;sensor_type;location;lat;lon;timestamp;P1;durP1;ratioP1;P2;durP2;ratioP2
27265;SDS011;14766;51.380;13.762;2022-10-16T00:01:16;1.77;;;1.65;;
27265;SDS011;14766;51.380;13.762;2022-10-16T00:03:44;2.38;;;2.17;;
27265;SDS011;14766;51.380;13.762;2022-10-16T00:06:12;2.13;;;1.92;;
27265;SDS011;14766;51.380;13.762;2022-10-16T00:08:42;2.20;;;2.00;;
27265;SDS011;14766;51.380;13.762;2022-10-16T00:11:11;2.33;;;2.00;;
27265;SDS011;14766;51.380;13.762;2022-10-16T00:13:40;2.47;;;1.75;;
27265;SDS011;14766;51.380;13.762;2022-10-16T00:16:09;1.73;;;1.55;;
27265;SDS011;14766;51.380;13.762;2022-10-16T00:18:37;4.70;;;1.90;;
27265;SDS011;14766;51.380;13.762;2022-10-16T00:23:34;4.90;;;2.50;;
27265;SDS011;14766;51.380;13.762;2022-10-16T00:26:03;4.88;;;3.17;;
27265;SDS011;14766;51.380;13.762;2022-10-16T00:28:33;3.92;;;2.33;;
27265;SDS011;14766;51.380;13.762;2022-10-16T00:31:09;2.53;;;2.10;;
27265;SDS011;14766;51.380;13.762;2022-10-16T00:33:37;3.13;;;2.10;;
27265;SDS011;14766;51.380;13.762;2022-10-16T00:36:06;2.20;;;1.80;;
27265;SDS011;14766;51.380;13.762;2022-10-16T00:38:35;1.67;;;1.50;;
27265;SDS011;14766;51.380;13.762;2022-10-16T00:41:09;4.28;;;2.25;;
27265;SDS011;14766;51.380;13.762;2022-10-16T00:46:21;2.15;;;1.80;;
27265;SDS011;14766;51.380;13.762;2022-10-16T00:51:21;1.80;;;1.70;;
27265;SDS011;14766;51.380;13.762;2022-10-16T00:53:53;1.83;;;1.50;;
27265;SDS011;14766;51.380;13.762;2022-10-16T00:56:21;1.77;;;1.67;;
27265;SDS011;14766;51.380;13.762;2022-10-16T00:58:49;2.08;;;1.80;;
27265;SDS011;14766;51.380;13.762;2022-10-16T01:01:16;1.70;;;1.60;;
27265;SDS011;14766;51.380;13.762;2022-10-16T01:03:43;1.70;;;1.60;;
27265;SDS011;14766;51.380;13.762;2022-10-16T01:09:13;2.22;;;2.03;;
27265;SDS011;14766;51.380;13.762;2022-10-16T01:14:24;2.47;;;2.10;;
27265;SDS011;14766;51.380;13.762;2022-10-16T01:25:30;2.40;;;1.90;;
27265;SDS011;14766;51.380;13.762;2022-10-16T01:28:10;2.00;;;1.80;;
27265;SDS011;14766;51.380;13.762;2022-10-16T01:30:39;3.00;;;1.98;;
27265;SDS011;14766;51.380;13.762;2022-10-16T01:33:10;2.67;;;1.73;;
27265;SDS011;14766;51.380;13.762;2022-10-16T01:35:48;1.80;;;1.65;;
27265;SDS011;14766;51.380;13.762;2022-10-16T01:38:21;2.47;;;2.28;;
27265;SDS011;14766;51.380;13.762;2022-10-16T01:41:26;2.10;;;1.80;;
27265;SDS011;14766;51.380;13.762;2022-10-16T01:46:35;3.88;;;2.30;;
27265;SDS011;14766;51.380;13.762;2022-10-16T01:49:05;2.22;;;1.90;;
27265;SDS011;14766;51.380;13.762;2022-10-16T01:51:34;2.00;;;1.80;;
27265;SDS011;14766;51.380;13.762;2022-10-16T01:54:04;2.40;;;1.90;;
27265;SDS011;14766;51.380;13.762;2022-10-16T01:56:33;2.30;;;2.10;;
27265;SDS011;14766;51.380;13.762;2022-10-16T01:59:03;2.22;;;1.77;;
27265;SDS011;14766;51.380;13.762;2022-10-16T02:01:42;2.30;;;1.90;;
27265;SDS011;14766;51.380;13.762;2022-10-16T02:06:47;9.52;;;2.28;;
27265;SDS011;14766;51.380;13.762;2022-10-16T02:09:14;2.03;;;1.83;;
27265;SDS011;14766;51.380;13.762;2022-10-16T02:11:43;1.80;;;1.70;;
27265;SDS011;14766;51.380;13.762;2022-10-16T02:14:10;2.17;;;1.90;;
27265;SDS011;14766;51.380;13.762;2022-10-16T02:16:40;4.22;;;2.35;;
27265;SDS011;14766;51.380;13.762;2022-10-16T02:19:12;2.22;;;2.03;;
27265;SDS011;14766;51.380;13.762;2022-10-16T02:21:56;2.33;;;2.08;;
27265;SDS011;14766;51.380;13.762;2022-10-16T02:24:33;2.10;;;1.90;;
27265;SDS011;14766;51.380;13.762;2022-10-16T02:27:14;3.28;;;2.03;;
27265;SDS011;14766;51.380;13.762;2022-10-16T02:30:07;2.03;;;1.67;;
27265;SDS011;14766;51.380;13.762;2022-10-16T02:32:48;2.10;;;1.90;;
27265;SDS011;14766;51.380;13.762;2022-10-16T02:35:17;1.95;;;1.80;;
27265;SDS011;14766;51.380;13.762;2022-10-16T02:37:46;1.83;;;1.67;;
27265;SDS011;14766;51.380;13.762;2022-10-16T02:40:15;2.20;;;2.00;;
27265;SDS011;14766;51.380;13.762;2022-10-16T02:42:50;3.78;;;1.90;;
27265;SDS011;14766;51.380;13.762;2022-10-16T02:45:20;1.98;;;1.80;;
27265;SDS011;14766;51.380;13.762;2022-10-16T02:47:47;1.83;;;1.63;;
27265;SDS011;14766;51.380;13.762;2022-10-16T02:50:15;2.22;;;1.92;;
27265;SDS011;14766;51.380;13.762;2022-10-16T02:52:42;1.98;;;1.80;;
27265;SDS011;14766;51.380;13.762;2022-10-16T02:55:09;2.10;;;1.65;;
27265;SDS011;14766;51.380;13.762;2022-10-16T02:57:36;2.10;;;1.83;;
27265;SDS011;14766;51.380;13.762;2022-10-16T03:00:04;2.05;;;1.83;;
27265;SDS011;14766;51.380;13.762;2022-10-16T03:02:31;1.95;;;1.75;;
27265;SDS011;14766;51.380;13.762;2022-10-16T03:04:58;1.85;;;1.65;;
27265;SDS011;14766;51.380;13.762;2022-10-16T03:07:25;2.05;;;1.67;;
27265;SDS011;14766;51.380;13.762;2022-10-16T03:09:53;1.70;;;1.60;;
27265;SDS011;14766;51.380;13.762;2022-10-16T03:12:21;2.10;;;1.90;;
27265;SDS011;14766;51.380;13.762;2022-10-16T03:14:48;2.45;;;1.80;;
27265;SDS011;14766;51.380;13.762;2022-10-16T03:17:16;2.53;;;1.80;;
27265;SDS011;14766;51.380;13.762;2022-10-16T03:19:43;1.95;;;1.75;;
27265;SDS011;14766;51.380;13.762;2022-10-16T03:22:11;2.30;;;1.80;;
27265;SDS011;14766;51.380;13.762;2022-10-16T03:24:38;2.03;;;1.60;;
27265;SDS011;14766;51.380;13.762;2022-10-16T03:27:06;1.60;;;1.50;;
27265;SDS011;14766;51.380;13.762;2022-10-16T03:29:33;1.83;;;1.60;;
27265;SDS011;14766;51.380;13.762;2022-10-16T03:32:00;1.50;;;1.40;;
27265;SDS011;14766;51.380;13.762;2022-10-16T03:34:27;3.22;;;1.77;;
27265;SDS011;14766;51.380;13.762;2022-10-16T03:36:54;2.00;;;1.55;;
27265;SDS011;14766;51.380;13.762;2022-10-16T03:39:22;1.73;;;1.63;;
27265;SDS011;14766;51.380;13.762;2022-10-16T03:41:49;1.73;;;1.60;;
27265;SDS011;14766;51.380;13.762;2022-10-16T03:44:16;3.55;;;2.38;;
27265;SDS011;14766;51.380;13.762;2022-10-16T03:46:43;2.72;;;2.25;;
27265;SDS011;14766;51.380;13.762;2022-10-16T03:49:10;2.88;;;2.58;;
27265;SDS011;14766;51.380;13.762;2022-10-16T03:51:37;2.50;;;2.00;;
27265;SDS011;14766;51.380;13.762;2022-10-16T03:54:04;3.95;;;2.10;;
27265;SDS011;14766;51.380;13.762;2022-10-16T03:56:31;1.50;;;1.40;;
27265;SDS011;14766;51.380;13.762;2022-10-16T03:58:58;2.00;;;1.80;;
27265;SDS011;14766;51.380;13.762;2022-10-16T04:01:24;1.90;;;1.73;;
27265;SDS011;14766;51.380;13.762;2022-10-16T04:03:52;1.63;;;1.52;;
27265;SDS011;14766;51.380;13.762;2022-10-16T04:06:19;2.38;;;2.00;;
27265;SDS011;14766;51.380;13.762;2022-10-16T04:08:45;2.08;;;1.75;;
27265;SDS011;14766;51.380;13.762;2022-10-16T04:11:12;2.80;;;2.00;;
27265;SDS011;14766;51.380;13.762;2022-10-16T04:13:39;5.75;;;2.35;;
27265;SDS011;14766;51.380;13.762;2022-10-16T04:16:07;2.40;;;1.95;;
27265;SDS011;14766;51.380;13.762;2022-10-16T04:18:34;2.20;;;2.00;;
27265;SDS011;14766;51.380;13.762;2022-10-16T04:21:02;3.20;;;2.20;;
27265;SDS011;14766;51.380;13.762;2022-10-16T04:23:32;2.10;;;1.90;;
27265;SDS011;14766;51.380;13.762;2022-10-16T04:26:00;2.90;;;2.42;;
27265;SDS011;14766;51.380;13.762;2022-10-16T04:28:27;2.78;;;2.58;;
27265;SDS011;14766;51.380;13.762;2022-10-16T04:30:55;2.30;;;2.10;;
27265;SDS011;14766;51.380;13.762;2022-10-16T04:33:22;2.65;;;2.20;;
27265;SDS011;14766;51.380;13.762;2022-10-16T04:36:00;2.63;;;2.22;;
27265;SDS011;14766;51.380;13.762;2022-10-16T04:38:28;3.05;;;2.50;;
27265;SDS011;14766;51.380;13.762;2022-10-16T04:40:55;2.38;;;2.17;;
27265;SDS011;14766;51.380;13.762;2022-10-16T04:43:22;2.88;;;2.50;;
27265;SDS011;14766;51.380;13.762;2022-10-16T04:45:49;3.47;;;2.55;;
27265;SDS011;14766;51.380;13.762;2022-10-16T04:48:21;2.63;;;2.40;;
27265;SDS011;14766;51.380;13.762;2022-10-16T04:50:48;2.85;;;2.58;;
27265;SDS011;14766;51.380;13.762;2022-10-16T04:53:21;2.80;;;2.60;;
27265;SDS011;14766;51.380;13.762;2022-10-16T04:55:48;2.75;;;2.53;;
27265;SDS011;14766;51.380;13.762;2022-10-16T04:58:15;2.65;;;2.45;;
27265;SDS011;14766;51.380;13.762;2022-10-16T05:00:42;2.88;;;2.67;;
27265;SDS011;14766;51.380;13.762;2022-10-16T05:03:10;3.25;;;2.95;;
27265;SDS011;14766;51.380;13.762;2022-10-16T05:05:41;3.10;;;2.70;;
27265;SDS011;14766;51.380;13.762;2022-10-16T05:08:13;2.88;;;2.55;;
27265;SDS011;14766;51.380;13.762;2022-10-16T05:10:41;3.03;;;2.72;;
27265;SDS011;14766;51.380;13.762;2022-10-16T05:13:09;2.95;;;2.65;;
27265;SDS011;14766;51.380;13.762;2022-10-16T05:15:37;3.53;;;3.10;;
27265;SDS011;14766;51.380;13.762;2022-10-16T05:18:04;3.17;;;2.80;;
27265;SDS011;14766;51.380;13.762;2022-10-16T05:20:32;4.05;;;3.42;;
27265;SDS011;14766;51.380;13.762;2022-10-16T05:22:59;3.65;;;3.35;;
27265;SDS011;14766;51.380;13.762;2022-10-16T05:25:27;3.45;;;2.97;;
27265;SDS011;14766;51.380;13.762;2022-10-16T05:27:54;3.80;;;3.40;;
27265;SDS011;14766;51.380;13.762;2022-10-16T05:30:21;3.42;;;3.13;;
27265;SDS011;14766;51.380;13.762;2022-10-16T05:32:48;4.03;;;2.97;;
27265;SDS011;14766;51.380;13.762;2022-10-16T05:35:17;5.72;;;4.93;;
27265;SDS011;14766;51.380;13.762;2022-10-16T05:37:45;8.15;;;6.35;;
27265;SDS011;14766;51.380;13.762;2022-10-16T05:40:12;4.72;;;4.22;;
27265;SDS011;14766;51.380;13.762;2022-10-16T05:42:41;5.25;;;4.05;;
27265;SDS011;14766;51.380;13.762;2022-10-16T05:45:09;4.07;;;3.65;;
27265;SDS011;14766;51.380;13.762;2022-10-16T05:47:38;4.18;;;3.67;;
27265;SDS011;14766;51.380;13.762;2022-10-16T05:50:05;3.67;;;3.25;;
27265;SDS011;14766;51.380;13.762;2022-10-16T05:52:33;4.00;;;2.95;;
27265;SDS011;14766;51.380;13.762;2022-10-16T05:55:01;3.53;;;3.22;;
27265;SDS011;14766;51.380;13.762;2022-10-16T05:57:28;3.55;;;2.90;;
27265;SDS011;14766;51.380;13.762;2022-10-16T05:59:56;3.17;;;2.88;;
27265;SDS011;14766;51.380;13.762;2022-10-16T06:02:23;3.53;;;3.20;;
27265;SDS011;14766;51.380;13.762;2022-10-16T06:04:51;3.78;;;3.47;;
27265;SDS011;14766;51.380;13.762;2022-10-16T06:07:22;3.88;;;3.47;;
27265;SDS011;14766;51.380;13.762;2022-10-16T06:09:50;9.35;;;3.30;;
27265;SDS011;14766;51.380;13.762;2022-10-16T06:12:18;3.80;;;2.97;;
27265;SDS011;14766;51.380;13.762;2022-10-16T06:14:46;3.95;;;3.00;;
27265;SDS011;14766;51.380;13.762;2022-10-16T06:17:13;3.50;;;3.20;;
27265;SDS011;14766;51.380;13.762;2022-10-16T06:19:41;3.78;;;2.80;;
27265;SDS011;14766;51.380;13.762;2022-10-16T06:22:08;3.50;;;3.05;;
27265;SDS011;14766;51.380;13.762;2022-10-16T06:24:35;3.38;;;2.88;;
27265;SDS011;14766;51.380;13.762;2022-10-16T06:27:03;2.95;;;2.60;;
27265;SDS011;14766;51.380;13.762;2022-10-16T06:29:30;2.97;;;2.67;;
27265;SDS011;14766;51.380;13.762;2022-10-16T06:31:57;3.42;;;3.13;;
27265;SDS011;14766;51.380;13.762;2022-10-16T06:34:24;3.05;;;2.83;;
27265;SDS011;14766;51.380;13.762;2022-10-16T06:36:52;3.30;;;2.92;;
27265;SDS011;14766;51.380;13.762;2022-10-16T06:39:19;3.22;;;2.92;;
27265;SDS011;14766;51.380;13.762;2022-10-16T06:41:46;2.92;;;2.60;;
27265;SDS011;14766;51.380;13.762;2022-10-16T06:44:14;2.95;;;2.72;;
27265;SDS011;14766;51.380;13.762;2022-10-16T06:46:41;3.13;;;2.83;;
27265;SDS011;14766;51.380;13.762;2022-10-16T06:49:08;3.20;;;2.85;;
27265;SDS011;14766;51.380;13.762;2022-10-16T06:51:35;4.05;;;2.60;;
27265;SDS011;14766;51.380;13.762;2022-10-16T06:54:09;3.50;;;2.63;;
27265;SDS011;14766;51.380;13.762;2022-10-16T06:56:36;3.38;;;2.95;;
27265;SDS011;14766;51.380;13.762;2022-10-16T06:59:04;3.00;;;2.70;;
27265;SDS011;14766;51.380;13.762;2022-10-16T07:01:31;2.55;;;2.30;;
27265;SDS011;14766;51.380;13.762;2022-10-16T07:03:58;4.63;;;3.08;;
27265;SDS011;14766;51.380;13.762;2022-10-16T07:06:30;4.13;;;3.72;;
27265;SDS011;14766;51.380;13.762;2022-10-16T07:09:00;4.65;;;4.15;;
27265;SDS011;14766;51.380;13.762;2022-10-16T07:11:33;4.18;;;3.60;;
27265;SDS011;14766;51.380;13.762;2022-10-16T07:14:01;3.42;;;3.13;;
27265;SDS011;14766;51.380;13.762;2022-10-16T07:16:29;4.45;;;3.25;;
27265;SDS011;14766;51.380;13.762;2022-10-16T07:18:58;3.42;;;3.10;;
27265;SDS011;14766;51.380;13.762;2022-10-16T07:21:28;3.40;;;3.10;;
27265;SDS011;14766;51.380;13.762;2022-10-16T07:24:03;3.40;;;3.10;;
27265;SDS011;14766;51.380;13.762;2022-10-16T07:26:37;4.07;;;3.45;;
27265;SDS011;14766;51.380;13.762;2022-10-16T07:29:16;4.35;;;3.58;;
27265;SDS011;14766;51.380;13.762;2022-10-16T07:31:48;3.60;;;3.30;;
27265;SDS011;14766;51.380;13.762;2022-10-16T07:34:16;3.42;;;3.13;;
27265;SDS011;14766;51.380;13.762;2022-10-16T07:36:47;3.60;;;3.30;;
27265;SDS011;14766;51.380;13.762;2022-10-16T07:39:15;4.20;;;3.25;;
27265;SDS011;14766;51.380;13.762;2022-10-16T07:41:42;3.50;;;3.03;;
27265;SDS011;14766;51.380;13.762;2022-10-16T07:44:09;3.30;;;2.60;;
27265;SDS011;14766;51.380;13.762;2022-10-16T07:46:37;3.55;;;2.55;;
27265;SDS011;14766;51.380;13.762;2022-10-16T07:49:04;2.80;;;2.60;;
27265;SDS011;14766;51.380;13.762;2022-10-16T07:51:31;1.90;;;1.80;;
27265;SDS011;14766;51.380;13.762;2022-10-16T07:53:59;3.22;;;2.13;;
27265;SDS011;14766;51.380;13.762;2022-10-16T07:56:26;2.17;;;1.98;;
27265;SDS011;14766;51.380;13.762;2022-10-16T07:58:55;1.60;;;1.50;;
27265;SDS011;14766;51.380;13.762;2022-10-16T08:01:23;2.10;;;1.90;;
27265;SDS011;14766;51.380;13.762;2022-10-16T08:03:51;1.70;;;1.60;;
27265;SDS011;14766;51.380;13.762;2022-10-16T08:06:20;1.63;;;1.52;;
27265;SDS011;14766;51.380;13.762;2022-10-16T08:08:53;1.45;;;1.35;;
27265;SDS011;14766;51.380;13.762;2022-10-16T08:11:26;1.30;;;1.20;;
27265;SDS011;14766;51.380;13.762;2022-10-16T08:13:54;1.50;;;1.40;;
27265;SDS011;14766;51.380;13.762;2022-10-16T08:16:22;0.95;;;0.90;;
27265;SDS011;14766;51.380;13.762;2022-10-16T08:18:49;0.82;;;0.82;;
27265;SDS011;14766;51.380;13.762;2022-10-16T08:21:19;1.38;;;0.90;;
27265;SDS011;14766;51.380;13.762;2022-10-16T08:23:48;1.00;;;0.90;;
27265;SDS011;14766;51.380;13.762;2022-10-16T08:26:23;1.00;;;0.88;;
27265;SDS011;14766;51.380;13.762;2022-10-16T08:28:51;1.75;;;1.05;;
27265;SDS011;14766;51.380;13.762;2022-10-16T08:31:19;1.10;;;1.00;;
27265;SDS011;14766;51.380;13.762;2022-10-16T08:36:42;1.17;;;0.98;;
27265;SDS011;14766;51.380;13.762;2022-10-16T08:39:09;1.95;;;0.90;;
27265;SDS011;14766;51.380;13.762;2022-10-16T08:44:30;0.70;;;0.70;;
27265;SDS011;14766;51.380;13.762;2022-10-16T08:50:02;0.80;;;0.80;;
27265;SDS011;14766;51.380;13.762;2022-10-16T08:52:38;2.00;;;0.90;;
27265;SDS011;14766;51.380;13.762;2022-10-16T08:55:11;0.80;;;0.80;;
27265;SDS011;14766;51.380;13.762;2022-10-16T08:57:54;0.88;;;0.75;;
27265;SDS011;14766;51.380;13.762;2022-10-16T09:00:21;0.90;;;0.80;;
27265;SDS011;14766;51.380;13.762;2022-10-16T09:10:57;1.92;;;1.27;;
27265;SDS011;14766;51.380;13.762;2022-10-16T09:18:46;1.40;;;1.10;;
27265;SDS011;14766;51.380;13.762;2022-10-16T09:21:21;1.67;;;0.93;;
27265;SDS011;14766;51.380;13.762;2022-10-16T09:23:50;2.47;;;1.35;;
27265;SDS011;14766;51.380;13.762;2022-10-16T09:26:17;4.80;;;1.10;;
27265;SDS011;14766;51.380;13.762;2022-10-16T09:28:46;1.20;;;1.00;;
27265;SDS011;14766;51.380;13.762;2022-10-16T09:31:17;2.90;;;1.20;;
27265;SDS011;14766;51.380;13.762;2022-10-16T09:36:25;1.10;;;1.00;;
27265;SDS011;14766;51.380;13.762;2022-10-16T09:39:03;0.80;;;0.80;;
27265;SDS011;14766;51.380;13.762;2022-10-16T09:41:34;1.23;;;1.10;;
27265;SDS011;14766;51.380;13.762;2022-10-16T09:44:04;0.80;;;0.80;;
27265;SDS011;14766;51.380;13.762;2022-10-16T09:46:44;1.10;;;0.70;;
27265;SDS011;14766;51.380;13.762;2022-10-16T09:49:24;0.90;;;0.80;;
27265;SDS011;14766;51.380;13.762;2022-10-16T09:54:53;0.90;;;0.68;;
27265;SDS011;14766;51.380;13.762;2022-10-16T09:57:22;1.05;;;1.05;;
27265;SDS011;14766;51.380;13.762;2022-10-16T09:59:51;0.68;;;0.60;;
27265;SDS011;14766;51.380;13.762;2022-10-16T10:02:27;1.80;;;0.70;;
27265;SDS011;14766;51.380;13.762;2022-10-16T10:04:55;0.73;;;0.55;;
27265;SDS011;14766;51.380;13.762;2022-10-16T10:07:24;0.50;;;0.50;;
27265;SDS011;14766;51.380;13.762;2022-10-16T10:09:56;2.22;;;0.60;;
27265;SDS011;14766;51.380;13.762;2022-10-16T10:12:24;0.47;;;0.43;;
27265;SDS011;14766;51.380;13.762;2022-10-16T10:15:09;0.80;;;0.77;;
27265;SDS011;14766;51.380;13.762;2022-10-16T10:17:49;0.60;;;0.60;;
27265;SDS011;14766;51.380;13.762;2022-10-16T10:20:39;0.65;;;0.50;;
27265;SDS011;14766;51.380;13.762;2022-10-16T10:23:20;0.65;;;0.60;;
27265;SDS011;14766;51.380;13.762;2022-10-16T10:33:44;0.90;;;0.70;;
27265;SDS011;14766;51.380;13.762;2022-10-16T10:36:39;1.38;;;0.63;;
27265;SDS011;14766;51.380;13.762;2022-10-16T10:39:14;0.50;;;0.50;;
27265;SDS011;14766;51.380;13.762;2022-10-16T10:46:50;0.77;;;0.60;;
27265;SDS011;14766;51.380;13.762;2022-10-16T10:54:38;2.22;;;0.90;;
27265;SDS011;14766;51.380;13.762;2022-10-16T10:57:30;0.80;;;0.70;;
27265;SDS011;14766;51.380;13.762;2022-10-16T11:03:13;3.08;;;1.10;;
27265;SDS011;14766;51.380;13.762;2022-10-16T11:06:06;1.00;;;0.90;;
27265;SDS011;14766;51.380;13.762;2022-10-16T11:11:41;1.25;;;0.95;;
27265;SDS011;14766;51.380;13.762;2022-10-16T11:16:52;1.23;;;1.00;;
27265;SDS011;14766;51.380;13.762;2022-10-16T11:25:06;1.33;;;0.90;;
27265;SDS011;14766;51.380;13.762;2022-10-16T11:27:57;1.98;;;1.17;;
27265;SDS011;14766;51.380;13.762;2022-10-16T11:30:49;2.25;;;1.70;;
27265;SDS011;14766;51.380;13.762;2022-10-16T11:33:25;1.73;;;1.30;;
27265;SDS011;14766;51.380;13.762;2022-10-16T11:36:18;1.25;;;1.00;;
27265;SDS011;14766;51.380;13.762;2022-10-16T11:41:50;2.85;;;2.15;;
27265;SDS011;14766;51.380;13.762;2022-10-16T11:55:31;1.00;;;0.77;;
27265;SDS011;14766;51.380;13.762;2022-10-16T12:09:19;1.17;;;1.08;;
27265;SDS011;14766;51.380;13.762;2022-10-16T12:11:47;1.45;;;1.13;;
27265;SDS011;14766;51.380;13.762;2022-10-16T12:16:55;0.88;;;0.88;;
27265;SDS011;14766;51.380;13.762;2022-10-16T12:19:29;1.13;;;0.80;;
27265;SDS011;14766;51.380;13.762;2022-10-16T12:22:00;1.67;;;0.90;;
27265;SDS011;14766;51.380;13.762;2022-10-16T12:27:02;1.42;;;0.90;;
27265;SDS011;14766;51.380;13.762;2022-10-16T12:29:37;0.90;;;0.73;;
27265;SDS011;14766;51.380;13.762;2022-10-16T12:35:20;1.48;;;1.38;;
27265;SDS011;14766;51.380;13.762;2022-10-16T12:38:05;1.33;;;1.08;;
27265;SDS011;14766;51.380;13.762;2022-10-16T12:40:40;3.10;;;1.65;;
27265;SDS011;14766;51.380;13.762;2022-10-16T12:43:13;2.90;;;2.60;;
27265;SDS011;14766;51.380;13.762;2022-10-16T12:45:59;1.63;;;1.52;;
27265;SDS011;14766;51.380;13.762;2022-10-16T12:48:47;1.60;;;1.50;;
27265;SDS011;14766;51.380;13.762;2022-10-16T13:10:36;2.00;;;1.80;;
27265;SDS011;14766;51.380;13.762;2022-10-16T13:16:48;1.85;;;1.42;;
27265;SDS011;14766;51.380;13.762;2022-10-16T13:19:42;1.10;;;1.00;;
27265;SDS011;14766;51.380;13.762;2022-10-16T13:22:25;1.85;;;1.00;;
27265;SDS011;14766;51.380;13.762;2022-10-16T13:25:17;1.00;;;0.90;;
27265;SDS011;14766;51.380;13.762;2022-10-16T13:30:42;1.70;;;1.40;;
27265;SDS011;14766;51.380;13.762;2022-10-16T13:33:37;1.10;;;1.00;;
27265;SDS011;14766;51.380;13.762;2022-10-16T13:36:22;1.20;;;1.10;;
27265;SDS011;14766;51.380;13.762;2022-10-16T13:39:06;1.92;;;1.27;;
27265;SDS011;14766;51.380;13.762;2022-10-16T13:41:40;1.13;;;0.82;;
27265;SDS011;14766;51.380;13.762;2022-10-16T13:44:15;0.90;;;0.80;;
27265;SDS011;14766;51.380;13.762;2022-10-16T13:46:46;1.05;;;1.00;;
27265;SDS011;14766;51.380;13.762;2022-10-16T13:49:14;0.80;;;0.80;;
27265;SDS011;14766;51.380;13.762;2022-10-16T13:51:56;1.17;;;0.80;;
27265;SDS011;14766;51.380;13.762;2022-10-16T13:54:25;1.50;;;1.25;;
27265;SDS011;14766;51.380;13.762;2022-10-16T13:56:56;1.42;;;1.33;;
27265;SDS011;14766;51.380;13.762;2022-10-16T13:59:50;1.40;;;1.30;;
27265;SDS011;14766;51.380;13.762;2022-10-16T14:02:29;1.30;;;1.20;;
27265;SDS011;14766;51.380;13.762;2022-10-16T14:05:02;1.35;;;1.10;;
27265;SDS011;14766;51.380;13.762;2022-10-16T14:07:31;1.10;;;0.82;;
27265;SDS011;14766;51.380;13.762;2022-10-16T14:10:05;1.55;;;1.20;;
27265;SDS011;14766;51.380;13.762;2022-10-16T14:12:44;2.63;;;0.80;;
27265;SDS011;14766;51.380;13.762;2022-10-16T14:15:16;2.53;;;0.80;;
27265;SDS011;14766;51.380;13.762;2022-10-16T14:17:47;0.90;;;0.90;;
27265;SDS011;14766;51.380;13.762;2022-10-16T14:20:16;0.88;;;0.88;;
27265;SDS011;14766;51.380;13.762;2022-10-16T14:22:44;1.15;;;0.80;;
27265;SDS011;14766;51.380;13.762;2022-10-16T14:27:57;3.28;;;2.78;;
27265;SDS011;14766;51.380;13.762;2022-10-16T14:30:32;2.30;;;2.10;;
27265;SDS011;14766;51.380;13.762;2022-10-16T14:33:05;1.90;;;1.42;;
27265;SDS011;14766;51.380;13.762;2022-10-16T14:35:46;1.25;;;1.08;;
27265;SDS011;14766;51.380;13.762;2022-10-16T14:38:25;1.73;;;0.98;;
27265;SDS011;14766;51.380;13.762;2022-10-16T14:40:52;1.10;;;0.90;;
27265;SDS011;14766;51.380;13.762;2022-10-16T14:43:21;1.02;;;0.93;;
27265;SDS011;14766;51.380;13.762;2022-10-16T14:45:53;0.95;;;0.90;;
27265;SDS011;14766;51.380;13.762;2022-10-16T14:48:23;1.80;;;1.30;;
27265;SDS011;14766;51.380;13.762;2022-10-16T14:50:51;3.03;;;2.03;;
27265;SDS011;14766;51.380;13.762;2022-10-16T14:53:19;1.40;;;1.13;;
27265;SDS011;14766;51.380;13.762;2022-10-16T14:55:47;0.88;;;0.88;;
27265;SDS011;14766;51.380;13.762;2022-10-16T14:58:16;1.98;;;0.95;;
27265;SDS011;14766;51.380;13.762;2022-10-16T15:00:48;1.45;;;1.10;;
27265;SDS011;14766;51.380;13.762;2022-10-16T15:03:16;1.30;;;1.20;;
27265;SDS011;14766;51.380;13.762;2022-10-16T15:05:43;2.25;;;1.20;;
27265;SDS011;14766;51.380;13.762;2022-10-16T15:08:10;2.05;;;0.90;;
27265;SDS011;14766;51.380;13.762;2022-10-16T15:10:40;2.85;;;2.30;;
27265;SDS011;14766;51.380;13.762;2022-10-16T15:13:13;1.55;;;1.45;;
27265;SDS011;14766;51.380;13.762;2022-10-16T15:15:44;1.63;;;1.30;;
27265;SDS011;14766;51.380;13.762;2022-10-16T15:18:14;0.80;;;0.80;;
27265;SDS011;14766;51.380;13.762;2022-10-16T15:20:47;0.80;;;0.80;;
27265;SDS011;14766;51.380;13.762;2022-10-16T15:23:21;1.30;;;1.05;;
27265;SDS011;14766;51.380;13.762;2022-10-16T15:25:50;3.05;;;1.17;;
27265;SDS011;14766;51.380;13.762;2022-10-16T15:28:22;1.13;;;0.90;;
27265;SDS011;14766;51.380;13.762;2022-10-16T15:30:51;2.20;;;1.40;;
27265;SDS011;14766;51.380;13.762;2022-10-16T15:33:21;1.60;;;1.40;;
27265;SDS011;14766;51.380;13.762;2022-10-16T15:35:50;1.63;;;1.45;;
27265;SDS011;14766;51.380;13.762;2022-10-16T15:38:19;2.72;;;1.55;;
27265;SDS011;14766;51.380;13.762;2022-10-16T15:40:50;1.83;;;1.30;;
27265;SDS011;14766;51.380;13.762;2022-10-16T15:43:17;1.98;;;1.65;;
27265;SDS011;14766;51.380;13.762;2022-10-16T15:46:05;2.58;;;1.60;;
27265;SDS011;14766;51.380;13.762;2022-10-16T15:48:37;1.90;;;1.50;;
27265;SDS011;14766;51.380;13.762;2022-10-16T15:51:10;1.93;;;1.43;;
27265;SDS011;14766;51.380;13.762;2022-10-16T15:53:39;1.80;;;1.52;;
27265;SDS011;14766;51.380;13.762;2022-10-16T15:56:07;2.20;;;1.42;;
27265;SDS011;14766;51.380;13.762;2022-10-16T15:58:36;2.15;;;1.58;;
27265;SDS011;14766;51.380;13.762;2022-10-16T16:01:05;2.60;;;1.60;;
27265;SDS011;14766;51.380;13.762;2022-10-16T16:03:35;2.50;;;1.83;;
27265;SDS011;14766;51.380;13.762;2022-10-16T16:06:08;1.90;;;1.70;;
27265;SDS011;14766;51.380;13.762;2022-10-16T16:08:37;3.70;;;1.90;;
27265;SDS011;14766;51.380;13.762;2022-10-16T16:11:06;2.58;;;1.70;;
27265;SDS011;14766;51.380;13.762;2022-10-16T16:13:36;3.60;;;2.00;;
27265;SDS011;14766;51.380;13.762;2022-10-16T16:16:05;3.47;;;2.70;;
27265;SDS011;14766;51.380;13.762;2022-10-16T16:18:36;6.38;;;3.35;;
27265;SDS011;14766;51.380;13.762;2022-10-16T16:21:04;7.00;;;4.55;;
27265;SDS011;14766;51.380;13.762;2022-10-16T16:23:32;11.35;;;6.22;;
27265;SDS011;14766;51.380;13.762;2022-10-16T16:26:07;10.70;;;5.35;;
27265;SDS011;14766;51.380;13.762;2022-10-16T16:28:43;7.10;;;4.80;;
27265;SDS011;14766;51.380;13.762;2022-10-16T16:31:10;8.05;;;4.45;;
27265;SDS011;14766;51.380;13.762;2022-10-16T16:33:39;11.02;;;6.10;;
27265;SDS011;14766;51.380;13.762;2022-10-16T16:36:08;15.82;;;9.82;;
27265;SDS011;14766;51.380;13.762;2022-10-16T16:38:41;18.95;;;11.63;;
27265;SDS011;14766;51.380;13.762;2022-10-16T16:41:15;17.55;;;10.77;;
27265;SDS011;14766;51.380;13.762;2022-10-16T16:43:54;15.13;;;9.60;;
27265;SDS011;14766;51.380;13.762;2022-10-16T16:46:22;19.63;;;12.10;;
27265;SDS011;14766;51.380;13.762;2022-10-16T16:48:49;18.63;;;11.75;;
27265;SDS011;14766;51.380;13.762;2022-10-16T16:51:23;14.45;;;9.90;;
27265;SDS011;14766;51.380;13.762;2022-10-16T16:53:53;15.65;;;10.63;;
27265;SDS011;14766;51.380;13.762;2022-10-16T16:56:24;14.50;;;10.60;;
27265;SDS011;14766;51.380;13.762;2022-10-16T16:58:53;13.95;;;9.73;;
27265;SDS011;14766;51.380;13.762;2022-10-16T17:01:23;16.95;;;10.63;;
27265;SDS011;14766;51.380;13.762;2022-10-16T17:03:53;9.48;;;6.68;;
27265;SDS011;14766;51.380;13.762;2022-10-16T17:06:23;8.23;;;6.25;;
27265;SDS011;14766;51.380;13.762;2022-10-16T17:08:52;8.20;;;6.35;;
27265;SDS011;14766;51.380;13.762;2022-10-16T17:11:21;9.50;;;7.07;;
27265;SDS011;14766;51.380;13.762;2022-10-16T17:13:49;8.57;;;6.78;;
27265;SDS011;14766;51.380;13.762;2022-10-16T17:16:26;9.23;;;6.50;;
27265;SDS011;14766;51.380;13.762;2022-10-16T17:19:00;9.55;;;6.95;;
27265;SDS011;14766;51.380;13.762;2022-10-16T17:21:29;11.70;;;7.43;;
27265;SDS011;14766;51.380;13.762;2022-10-16T17:23:58;12.90;;;9.40;;
27265;SDS011;14766;51.380;13.762;2022-10-16T17:26:27;10.02;;;7.57;;